sensor_id;sensor_type;location;lat;lon;timestamp;P1;durP1;ratioP1;P2;durP2;ratioP2
3447;SDS011;1738;49.500;17.736;2023-04-01T00:00:00;5.40;;;3.07;;
3447;SDS011;1738;49.500;17.736;2023-04-01T00:02:25;4.50;;;2.70;;
3447;SDS011;1738;49.500;17.736;2023-04-01T00:04:51;5.83;;;3.10;;
3447;SDS011;1738;49.500;17.736;2023-04-01T00:07:17;5.03;;;3.90;;
3447;SDS011;1738;49.500;17.736;2023-04-01T00:09:43;5.80;;;2.90;;
3447;SDS011;1738;49.500;17.736;2023-04-01T00:12:09;4.60;;;2.90;;
3447;SDS011;1738;49.500;17.736;2023-04-01T00:14:35;10.57;;;3.67;;
3447;SDS011;1738;49.500;17.736;2023-04-01T00:17:01;4.37;;;2.60;;
3447;SDS011;1738;49.500;17.736;2023-04-01T00:19:26;4.40;;;2.60;;
3447;SDS011;1738;49.500;17.736;2023-04-01T00:21:52;5.20;;;3.23;;
3447;SDS011;1738;49.500;17.736;2023-04-01T00:24:18;6.30;;;3.13;;
3447;SDS011;1738;49.500;17.736;2023-04-01T00:26:44;4.60;;;3.33;;
3447;SDS011;1738;49.500;17.736;2023-04-01T00:29:10;6.23;;;3.47;;
3447;SDS011;1738;49.500;17.736;2023-04-01T00:31:36;4.13;;;3.30;;
3447;SDS011;1738;49.500;17.736;2023-04-01T00:34:01;4.33;;;2.73;;
3447;SDS011;1738;49.500;17.736;2023-04-01T00:36:27;10.63;;;3.87;;
3447;SDS011;1738;49.500;17.736;2023-04-01T00:38:53;8.30;;;3.47;;
3447;SDS011;1738;49.500;17.736;2023-04-01T00:41:19;8.37;;;3.33;;
3447;SDS011;1738;49.500;17.736;2023-04-01T00:43:46;7.27;;;3.10;;
3447;SDS011;1738;49.500;17.736;2023-04-01T00:46:11;7.70;;;3.90;;
3447;SDS011;1738;49.500;17.736;2023-04-01T00:48:38;5.40;;;3.50;;
3447;SDS011;1738;49.500;17.736;2023-04-01T00:51:04;13.77;;;3.53;;
3447;SDS011;1738;49.500;17.736;2023-04-01T00:53:28;5.73;;;3.27;;
3447;SDS011;1738;49.500;17.736;2023-04-01T00:56:00;6.00;;;3.30;;
3447;SDS011;1738;49.500;17.736;2023-04-01T00:58:23;7.30;;;3.60;;
3447;SDS011;1738;49.500;17.736;2023-04-01T01:00:49;4.93;;;3.40;;
3447;SDS011;1738;49.500;17.736;2023-04-01T01:03:14;4.10;;;3.20;;
3447;SDS011;1738;49.500;17.736;2023-04-01T01:05:46;5.13;;;3.10;;
3447;SDS011;1738;49.500;17.736;2023-04-01T01:08:11;6.43;;;3.67;;
3447;SDS011;1738;49.500;17.736;2023-04-01T01:10:33;7.33;;;3.53;;
3447;SDS011;1738;49.500;17.736;2023-04-01T01:15:32;5.80;;;4.07;;
3447;SDS011;1738;49.500;17.736;2023-04-01T01:18:02;7.50;;;3.67;;
3447;SDS011;1738;49.500;17.736;2023-04-01T01:25:38;5.53;;;3.80;;
3447;SDS011;1738;49.500;17.736;2023-04-01T01:28:06;8.27;;;4.17;;
3447;SDS011;1738;49.500;17.736;2023-04-01T01:30:30;6.10;;;3.70;;
3447;SDS011;1738;49.500;17.736;2023-04-01T01:32:55;7.10;;;4.00;;
3447;SDS011;1738;49.500;17.736;2023-04-01T01:35:22;6.03;;;4.20;;
3447;SDS011;1738;49.500;17.736;2023-04-01T01:37:48;12.60;;;4.37;;
3447;SDS011;1738;49.500;17.736;2023-04-01T01:40:13;9.40;;;4.30;;
3447;SDS011;1738;49.500;17.736;2023-04-01T01:42:40;6.33;;;3.60;;
3447;SDS011;1738;49.500;17.736;2023-04-01T01:45:05;6.80;;;3.27;;
3447;SDS011;1738;49.500;17.736;2023-04-01T01:47:31;7.00;;;4.27;;
3447;SDS011;1738;49.500;17.736;2023-04-01T01:49:57;8.57;;;3.30;;
3447;SDS011;1738;49.500;17.736;2023-04-01T01:52:23;5.37;;;4.43;;
3447;SDS011;1738;49.500;17.736;2023-04-01T01:54:49;5.13;;;3.63;;
3447;SDS011;1738;49.500;17.736;2023-04-01T01:57:14;7.63;;;3.43;;
3447;SDS011;1738;49.500;17.736;2023-04-01T01:59:40;8.93;;;4.43;;
3447;SDS011;1738;49.500;17.736;2023-04-01T02:02:06;7.10;;;4.00;;
3447;SDS011;1738;49.500;17.736;2023-04-01T02:04:32;7.13;;;4.40;;
3447;SDS011;1738;49.500;17.736;2023-04-01T02:07:00;9.10;;;4.60;;
3447;SDS011;1738;49.500;17.736;2023-04-01T02:09:24;7.60;;;3.70;;
3447;SDS011;1738;49.500;17.736;2023-04-01T02:11:51;7.80;;;4.27;;
3447;SDS011;1738;49.500;17.736;2023-04-01T02:14:17;7.27;;;3.97;;
3447;SDS011;1738;49.500;17.736;2023-04-01T02:16:44;5.70;;;3.80;;
3447;SDS011;1738;49.500;17.736;2023-04-01T02:19:08;6.45;;;3.95;;
3447;SDS011;1738;49.500;17.736;2023-04-01T02:21:34;7.80;;;4.97;;
3447;SDS011;1738;49.500;17.736;2023-04-01T02:24:00;8.20;;;4.17;;
3447;SDS011;1738;49.500;17.736;2023-04-01T02:26:26;6.03;;;3.50;;
3447;SDS011;1738;49.500;17.736;2023-04-01T02:28:52;6.87;;;4.20;;
3447;SDS011;1738;49.500;17.736;2023-04-01T02:31:17;8.80;;;3.60;;
3447;SDS011;1738;49.500;17.736;2023-04-01T02:33:43;5.10;;;3.43;;
3447;SDS011;1738;49.500;17.736;2023-04-01T02:36:10;8.73;;;3.90;;
3447;SDS011;1738;49.500;17.736;2023-04-01T02:38:36;6.80;;;3.90;;
3447;SDS011;1738;49.500;17.736;2023-04-01T02:41:01;9.83;;;4.27;;
3447;SDS011;1738;49.500;17.736;2023-04-01T02:43:27;5.77;;;3.67;;
3447;SDS011;1738;49.500;17.736;2023-04-01T02:45:53;6.10;;;3.70;;
3447;SDS011;1738;49.500;17.736;2023-04-01T02:48:19;5.27;;;3.73;;
3447;SDS011;1738;49.500;17.736;2023-04-01T02:50:45;16.40;;;5.13;;
3447;SDS011;1738;49.500;17.736;2023-04-01T02:53:11;10.00;;;4.87;;
3447;SDS011;1738;49.500;17.736;2023-04-01T02:55:37;10.33;;;5.27;;
3447;SDS011;1738;49.500;17.736;2023-04-01T02:58:02;6.53;;;4.50;;
3447;SDS011;1738;49.500;17.736;2023-04-01T03:00:28;9.17;;;4.70;;
3447;SDS011;1738;49.500;17.736;2023-04-01T03:02:54;7.13;;;4.30;;
3447;SDS011;1738;49.500;17.736;2023-04-01T03:05:20;8.80;;;4.10;;
3447;SDS011;1738;49.500;17.736;2023-04-01T03:07:46;6.70;;;4.27;;
3447;SDS011;1738;49.500;17.736;2023-04-01T03:10:12;9.87;;;4.10;;
3447;SDS011;1738;49.500;17.736;2023-04-01T03:12:38;6.70;;;4.33;;
3447;SDS011;1738;49.500;17.736;2023-04-01T03:15:04;10.57;;;3.43;;
3447;SDS011;1738;49.500;17.736;2023-04-01T03:17:30;7.00;;;4.27;;
3447;SDS011;1738;49.500;17.736;2023-04-01T03:19:55;6.40;;;3.70;;
3447;SDS011;1738;49.500;17.736;2023-04-01T03:22:21;7.43;;;4.27;;
3447;SDS011;1738;49.500;17.736;2023-04-01T03:24:48;6.80;;;3.20;;
3447;SDS011;1738;49.500;17.736;2023-04-01T03:27:13;6.50;;;3.27;;
3447;SDS011;1738;49.500;17.736;2023-04-01T03:29:39;8.23;;;4.07;;
3447;SDS011;1738;49.500;17.736;2023-04-01T03:32:05;4.63;;;3.80;;
3447;SDS011;1738;49.500;17.736;2023-04-01T03:34:31;5.80;;;4.20;;
3447;SDS011;1738;49.500;17.736;2023-04-01T03:36:56;7.00;;;4.43;;
3447;SDS011;1738;49.500;17.736;2023-04-01T03:39:22;5.00;;;4.40;;
3447;SDS011;1738;49.500;17.736;2023-04-01T03:41:48;12.37;;;4.90;;
3447;SDS011;1738;49.500;17.736;2023-04-01T03:44:14;7.53;;;4.70;;
3447;SDS011;1738;49.500;17.736;2023-04-01T03:46:40;8.93;;;5.03;;
3447;SDS011;1738;49.500;17.736;2023-04-01T03:49:06;7.73;;;4.53;;
3447;SDS011;1738;49.500;17.736;2023-04-01T03:51:31;8.40;;;5.40;;
3447;SDS011;1738;49.500;17.736;2023-04-01T03:53:57;9.90;;;5.17;;
3447;SDS011;1738;49.500;17.736;2023-04-01T03:56:23;13.03;;;5.67;;
3447;SDS011;1738;49.500;17.736;2023-04-01T03:58:49;8.13;;;5.30;;
3447;SDS011;1738;49.500;17.736;2023-04-01T04:01:17;7.73;;;5.10;;
3447;SDS011;1738;49.500;17.736;2023-04-01T04:03:41;9.30;;;4.90;;
3447;SDS011;1738;49.500;17.736;2023-04-01T04:06:10;5.90;;;3.93;;
3447;SDS011;1738;49.500;17.736;2023-04-01T04:08:33;8.53;;;4.63;;
3447;SDS011;1738;49.500;17.736;2023-04-01T04:10:59;6.87;;;4.40;;
3447;SDS011;1738;49.500;17.736;2023-04-01T04:13:25;9.20;;;4.03;;
3447;SDS011;1738;49.500;17.736;2023-04-01T04:15:51;10.57;;;4.57;;
3447;SDS011;1738;49.500;17.736;2023-04-01T04:18:16;7.80;;;4.13;;
3447;SDS011;1738;49.500;17.736;2023-04-01T04:20:44;9.03;;;5.07;;
3447;SDS011;1738;49.500;17.736;2023-04-01T04:23:10;10.73;;;6.97;;
3447;SDS011;1738;49.500;17.736;2023-04-01T04:25:36;9.20;;;3.87;;
3447;SDS011;1738;49.500;17.736;2023-04-01T04:28:02;7.07;;;3.93;;
3447;SDS011;1738;49.500;17.736;2023-04-01T04:30:27;7.90;;;4.70;;
3447;SDS011;1738;49.500;17.736;2023-04-01T04:32:53;12.27;;;5.03;;
3447;SDS011;1738;49.500;17.736;2023-04-01T04:35:19;13.80;;;4.03;;
3447;SDS011;1738;49.500;17.736;2023-04-01T04:37:45;6.30;;;3.43;;
3447;SDS011;1738;49.500;17.736;2023-04-01T04:40:11;9.10;;;4.57;;
3447;SDS011;1738;49.500;17.736;2023-04-01T04:42:37;5.73;;;3.70;;
3447;SDS011;1738;49.500;17.736;2023-04-01T04:45:04;9.60;;;4.17;;
3447;SDS011;1738;49.500;17.736;2023-04-01T04:47:30;7.30;;;3.80;;
3447;SDS011;1738;49.500;17.736;2023-04-01T04:49:56;5.87;;;4.40;;
3447;SDS011;1738;49.500;17.736;2023-04-01T04:52:22;8.27;;;4.20;;
3447;SDS011;1738;49.500;17.736;2023-04-01T04:54:48;9.67;;;3.73;;
3447;SDS011;1738;49.500;17.736;2023-04-01T04:57:14;6.13;;;3.80;;
3447;SDS011;1738;49.500;17.736;2023-04-01T04:59:40;7.43;;;4.30;;
3447;SDS011;1738;49.500;17.736;2023-04-01T05:02:06;11.23;;;4.10;;
3447;SDS011;1738;49.500;17.736;2023-04-01T05:04:34;6.80;;;4.00;;
3447;SDS011;1738;49.500;17.736;2023-04-01T05:06:59;10.47;;;4.17;;
3447;SDS011;1738;49.500;17.736;2023-04-01T05:09:25;9.20;;;4.67;;
3447;SDS011;1738;49.500;17.736;2023-04-01T05:11:51;4.63;;;3.17;;
3447;SDS011;1738;49.500;17.736;2023-04-01T05:14:17;5.60;;;3.70;;
3447;SDS011;1738;49.500;17.736;2023-04-01T05:16:43;6.20;;;3.23;;
3447;SDS011;1738;49.500;17.736;2023-04-01T05:19:08;5.77;;;2.90;;
3447;SDS011;1738;49.500;17.736;2023-04-01T05:21:34;5.90;;;3.07;;
3447;SDS011;1738;49.500;17.736;2023-04-01T05:24:00;5.70;;;3.23;;
3447;SDS011;1738;49.500;17.736;2023-04-01T05:26:26;6.53;;;3.23;;
3447;SDS011;1738;49.500;17.736;2023-04-01T05:28:52;4.07;;;2.90;;
3447;SDS011;1738;49.500;17.736;2023-04-01T05:31:18;3.80;;;2.93;;
3447;SDS011;1738;49.500;17.736;2023-04-01T05:33:44;7.23;;;3.33;;
3447;SDS011;1738;49.500;17.736;2023-04-01T05:36:10;4.83;;;2.30;;
3447;SDS011;1738;49.500;17.736;2023-04-01T05:38:35;5.23;;;2.20;;
3447;SDS011;1738;49.500;17.736;2023-04-01T05:41:02;6.07;;;2.80;;
3447;SDS011;1738;49.500;17.736;2023-04-01T05:43:27;6.90;;;2.87;;
3447;SDS011;1738;49.500;17.736;2023-04-01T05:45:53;6.10;;;2.83;;
3447;SDS011;1738;49.500;17.736;2023-04-01T05:48:19;5.10;;;2.00;;
3447;SDS011;1738;49.500;17.736;2023-04-01T05:50:45;6.90;;;2.77;;
3447;SDS011;1738;49.500;17.736;2023-04-01T05:53:11;3.10;;;1.80;;
3447;SDS011;1738;49.500;17.736;2023-04-01T05:55:36;8.67;;;2.83;;
3447;SDS011;1738;49.500;17.736;2023-04-01T05:58:02;4.50;;;2.53;;
3447;SDS011;1738;49.500;17.736;2023-04-01T06:00:28;3.10;;;2.00;;
3447;SDS011;1738;49.500;17.736;2023-04-01T06:02:54;3.80;;;2.30;;
3447;SDS011;1738;49.500;17.736;2023-04-01T06:05:21;5.23;;;2.87;;
3447;SDS011;1738;49.500;17.736;2023-04-01T06:07:46;4.43;;;2.00;;
3447;SDS011;1738;49.500;17.736;2023-04-01T06:10:12;4.30;;;2.20;;
3447;SDS011;1738;49.500;17.736;2023-04-01T06:12:40;6.93;;;2.85;;
3447;SDS011;1738;49.500;17.736;2023-04-01T06:15:18;4.10;;;2.40;;
3447;SDS011;1738;49.500;17.736;2023-04-01T06:17:51;10.10;;;2.73;;
3447;SDS011;1738;49.500;17.736;2023-04-01T06:20:49;4.50;;;2.47;;
3447;SDS011;1738;49.500;17.736;2023-04-01T06:25:43;4.93;;;2.63;;
3447;SDS011;1738;49.500;17.736;2023-04-01T06:30:42;3.57;;;1.90;;
3447;SDS011;1738;49.500;17.736;2023-04-01T06:35:54;4.57;;;2.57;;
3447;SDS011;1738;49.500;17.736;2023-04-01T06:38:26;3.30;;;1.93;;
3447;SDS011;1738;49.500;17.736;2023-04-01T06:40:57;4.80;;;2.23;;
3447;SDS011;1738;49.500;17.736;2023-04-01T06:43:40;6.80;;;2.57;;
3447;SDS011;1738;49.500;17.736;2023-04-01T06:46:08;4.53;;;2.70;;
3447;SDS011;1738;49.500;17.736;2023-04-01T06:51:12;10.47;;;2.53;;
3447;SDS011;1738;49.500;17.736;2023-04-01T06:56:24;5.80;;;2.00;;
3447;SDS011;1738;49.500;17.736;2023-04-01T06:58:49;4.50;;;2.67;;
3447;SDS011;1738;49.500;17.736;2023-04-01T07:01:14;3.47;;;2.50;;
3447;SDS011;1738;49.500;17.736;2023-04-01T07:03:40;6.40;;;2.00;;
3447;SDS011;1738;49.500;17.736;2023-04-01T07:06:06;8.73;;;2.60;;
3447;SDS011;1738;49.500;17.736;2023-04-01T07:08:33;4.97;;;2.53;;
3447;SDS011;1738;49.500;17.736;2023-04-01T07:11:00;3.77;;;2.00;;
3447;SDS011;1738;49.500;17.736;2023-04-01T07:13:25;2.90;;;1.60;;
3447;SDS011;1738;49.500;17.736;2023-04-01T07:15:54;6.40;;;2.40;;
3447;SDS011;1738;49.500;17.736;2023-04-01T07:18:19;4.30;;;2.60;;
3447;SDS011;1738;49.500;17.736;2023-04-01T07:20:43;4.23;;;2.60;;
3447;SDS011;1738;49.500;17.736;2023-04-01T07:23:21;5.93;;;3.20;;
3447;SDS011;1738;49.500;17.736;2023-04-01T07:25:44;7.10;;;3.87;;
3447;SDS011;1738;49.500;17.736;2023-04-01T07:28:12;6.53;;;3.30;;
3447;SDS011;1738;49.500;17.736;2023-04-01T07:30:43;6.33;;;2.37;;
3447;SDS011;1738;49.500;17.736;2023-04-01T07:33:04;3.33;;;2.20;;
3447;SDS011;1738;49.500;17.736;2023-04-01T07:35:33;3.87;;;2.63;;
3447;SDS011;1738;49.500;17.736;2023-04-01T07:38:03;4.30;;;2.40;;
3447;SDS011;1738;49.500;17.736;2023-04-01T07:43:11;2.90;;;1.70;;
3447;SDS011;1738;49.500;17.736;2023-04-01T07:45:43;5.80;;;2.10;;
3447;SDS011;1738;49.500;17.736;2023-04-01T07:48:13;3.50;;;1.83;;
3447;SDS011;1738;49.500;17.736;2023-04-01T07:50:38;7.40;;;2.17;;
3447;SDS011;1738;49.500;17.736;2023-04-01T07:55:37;3.67;;;2.60;;
3447;SDS011;1738;49.500;17.736;2023-04-01T07:58:08;5.70;;;2.20;;
3447;SDS011;1738;49.500;17.736;2023-04-01T08:00:37;5.43;;;2.37;;
3447;SDS011;1738;49.500;17.736;2023-04-01T08:03:04;3.00;;;1.90;;
3447;SDS011;1738;49.500;17.736;2023-04-01T08:05:29;4.93;;;2.77;;
3447;SDS011;1738;49.500;17.736;2023-04-01T08:08:01;4.10;;;1.90;;
3447;SDS011;1738;49.500;17.736;2023-04-01T08:10:26;3.43;;;2.27;;
3447;SDS011;1738;49.500;17.736;2023-04-01T08:12:58;4.00;;;2.20;;
3447;SDS011;1738;49.500;17.736;2023-04-01T08:17:55;4.13;;;1.90;;
3447;SDS011;1738;49.500;17.736;2023-04-01T08:20:23;3.60;;;2.13;;
3447;SDS011;1738;49.500;17.736;2023-04-01T08:22:46;7.53;;;2.80;;
3447;SDS011;1738;49.500;17.736;2023-04-01T08:25:14;6.67;;;2.87;;
3447;SDS011;1738;49.500;17.736;2023-04-01T08:27:38;6.00;;;2.53;;
3447;SDS011;1738;49.500;17.736;2023-04-01T08:30:04;4.10;;;2.20;;
3447;SDS011;1738;49.500;17.736;2023-04-01T08:32:34;7.53;;;2.00;;
3447;SDS011;1738;49.500;17.736;2023-04-01T08:35:05;3.60;;;1.50;;
3447;SDS011;1738;49.500;17.736;2023-04-01T08:37:26;4.00;;;1.77;;
3447;SDS011;1738;49.500;17.736;2023-04-01T08:39:51;4.77;;;2.60;;
3447;SDS011;1738;49.500;17.736;2023-04-01T08:42:22;4.43;;;1.90;;
3447;SDS011;1738;49.500;17.736;2023-04-01T08:44:46;6.77;;;2.00;;
3447;SDS011;1738;49.500;17.736;2023-04-01T08:47:13;8.10;;;2.20;;
3447;SDS011;1738;49.500;17.736;2023-04-01T08:52:10;6.10;;;1.57;;
3447;SDS011;1738;49.500;17.736;2023-04-01T08:57:07;3.70;;;1.80;;
3447;SDS011;1738;49.500;17.736;2023-04-01T08:59:32;7.90;;;2.63;;
3447;SDS011;1738;49.500;17.736;2023-04-01T09:02:16;6.57;;;3.17;;
3447;SDS011;1738;49.500;17.736;2023-04-01T09:04:58;3.77;;;1.90;;
3447;SDS011;1738;49.500;17.736;2023-04-01T09:07:22;4.57;;;1.70;;
3447;SDS011;1738;49.500;17.736;2023-04-01T09:12:26;15.37;;;7.33;;
3447;SDS011;1738;49.500;17.736;2023-04-01T09:28:05;5.70;;;2.03;;
3447;SDS011;1738;49.500;17.736;2023-04-01T09:30:33;3.20;;;1.57;;
3447;SDS011;1738;49.500;17.736;2023-04-01T09:33:07;5.50;;;1.57;;
3447;SDS011;1738;49.500;17.736;2023-04-01T09:38:11;7.53;;;1.67;;
3447;SDS011;1738;49.500;17.736;2023-04-01T09:40:34;8.33;;;2.37;;
3447;SDS011;1738;49.500;17.736;2023-04-01T09:45:53;4.90;;;2.30;;
3447;SDS011;1738;49.500;17.736;2023-04-01T09:48:21;5.10;;;1.87;;
3447;SDS011;1738;49.500;17.736;2023-04-01T09:50:47;11.90;;;1.80;;
3447;SDS011;1738;49.500;17.736;2023-04-01T09:53:16;2.63;;;1.40;;
3447;SDS011;1738;49.500;17.736;2023-04-01T09:55:53;5.53;;;2.37;;
3447;SDS011;1738;49.500;17.736;2023-04-01T09:58:33;7.93;;;3.67;;
3447;SDS011;1738;49.500;17.736;2023-04-01T10:01:02;4.23;;;1.97;;
3447;SDS011;1738;49.500;17.736;2023-04-01T10:03:30;3.00;;;1.43;;
3447;SDS011;1738;49.500;17.736;2023-04-01T10:05:58;3.90;;;1.50;;
3447;SDS011;1738;49.500;17.736;2023-04-01T10:08:24;3.57;;;1.73;;
3447;SDS011;1738;49.500;17.736;2023-04-01T10:10:55;3.00;;;1.20;;
3447;SDS011;1738;49.500;17.736;2023-04-01T10:13:22;2.63;;;1.37;;
3447;SDS011;1738;49.500;17.736;2023-04-01T10:15:47;10.43;;;1.73;;
3447;SDS011;1738;49.500;17.736;2023-04-01T10:21:29;5.00;;;1.50;;
3447;SDS011;1738;49.500;17.736;2023-04-01T10:26:09;2.57;;;1.13;;
3447;SDS011;1738;49.500;17.736;2023-04-01T10:28:36;3.13;;;1.47;;
3447;SDS011;1738;49.500;17.736;2023-04-01T10:34:05;3.83;;;1.50;;
3447;SDS011;1738;49.500;17.736;2023-04-01T10:36:58;2.83;;;1.40;;
3447;SDS011;1738;49.500;17.736;2023-04-01T10:39:12;5.43;;;1.67;;
3447;SDS011;1738;49.500;17.736;2023-04-01T10:44:11;3.90;;;1.40;;
3447;SDS011;1738;49.500;17.736;2023-04-01T10:52:11;5.80;;;1.97;;
3447;SDS011;1738;49.500;17.736;2023-04-01T10:54:40;4.10;;;1.77;;
3447;SDS011;1738;49.500;17.736;2023-04-01T10:59:56;3.30;;;1.77;;
3447;SDS011;1738;49.500;17.736;2023-04-01T11:15:41;3.13;;;1.67;;
3447;SDS011;1738;49.500;17.736;2023-04-01T11:18:01;4.47;;;1.60;;
3447;SDS011;1738;49.500;17.736;2023-04-01T11:20:32;2.63;;;2.07;;
3447;SDS011;1738;49.500;17.736;2023-04-01T11:23:00;5.23;;;1.83;;
3447;SDS011;1738;49.500;17.736;2023-04-01T11:25:25;3.60;;;1.47;;
3447;SDS011;1738;49.500;17.736;2023-04-01T11:30:26;10.40;;;6.17;;
3447;SDS011;1738;49.500;17.736;2023-04-01T11:32:50;7.20;;;3.60;;
3447;SDS011;1738;49.500;17.736;2023-04-01T11:37:51;7.20;;;2.83;;
3447;SDS011;1738;49.500;17.736;2023-04-01T11:42:49;13.30;;;7.10;;
3447;SDS011;1738;49.500;17.736;2023-04-01T11:48:16;2.93;;;1.20;;
3447;SDS011;1738;49.500;17.736;2023-04-01T11:50:44;3.77;;;2.47;;
3447;SDS011;1738;49.500;17.736;2023-04-01T11:53:15;7.53;;;2.20;;
3447;SDS011;1738;49.500;17.736;2023-04-01T11:55:43;5.97;;;2.67;;
3447;SDS011;1738;49.500;17.736;2023-04-01T11:58:10;4.57;;;2.70;;
3447;SDS011;1738;49.500;17.736;2023-04-01T12:03:18;3.17;;;1.70;;
3447;SDS011;1738;49.500;17.736;2023-04-01T12:05:46;5.60;;;2.90;;
3447;SDS011;1738;49.500;17.736;2023-04-01T12:10:55;4.37;;;2.70;;
3447;SDS011;1738;49.500;17.736;2023-04-01T12:16:03;3.60;;;1.87;;
3447;SDS011;1738;49.500;17.736;2023-04-01T12:18:59;3.57;;;1.77;;
3447;SDS011;1738;49.500;17.736;2023-04-01T12:21:24;6.03;;;3.03;;
3447;SDS011;1738;49.500;17.736;2023-04-01T12:23:52;5.07;;;2.03;;
3447;SDS011;1738;49.500;17.736;2023-04-01T12:26:19;9.03;;;8.03;;
3447;SDS011;1738;49.500;17.736;2023-04-01T12:29:54;8.60;;;3.20;;
3447;SDS011;1738;49.500;17.736;2023-04-01T12:31:33;9.90;;;5.10;;
3447;SDS011;1738;49.500;17.736;2023-04-01T12:34:00;11.80;;;4.77;;
3447;SDS011;1738;49.500;17.736;2023-04-01T12:36:32;4.60;;;2.40;;
3447;SDS011;1738;49.500;17.736;2023-04-01T12:41:48;4.07;;;1.47;;
3447;SDS011;1738;49.500;17.736;2023-04-01T12:44:23;6.53;;;1.50;;
3447;SDS011;1738;49.500;17.736;2023-04-01T12:52:10;4.30;;;1.30;;
3447;SDS011;1738;49.500;17.736;2023-04-01T12:54:44;3.13;;;1.30;;
3447;SDS011;1738;49.500;17.736;2023-04-01T12:57:09;7.33;;;5.20;;
3447;SDS011;1738;49.500;17.736;2023-04-01T12:59:47;4.00;;;3.60;;
3447;SDS011;1738;49.500;17.736;2023-04-01T13:02:18;3.90;;;2.20;;
3447;SDS011;1738;49.500;17.736;2023-04-01T13:07:22;7.60;;;2.10;;
3447;SDS011;1738;49.500;17.736;2023-04-01T13:10:58;2.33;;;1.33;;
3447;SDS011;1738;49.500;17.736;2023-04-01T13:17:37;2.30;;;1.10;;
3447;SDS011;1738;49.500;17.736;2023-04-01T13:20:07;3.17;;;1.77;;
3447;SDS011;1738;49.500;17.736;2023-04-01T13:22:44;2.70;;;1.50;;
3447;SDS011;1738;49.500;17.736;2023-04-01T13:25:05;2.70;;;1.70;;
3447;SDS011;1738;49.500;17.736;2023-04-01T13:27:34;3.60;;;1.80;;
3447;SDS011;1738;49.500;17.736;2023-04-01T13:35:27;3.20;;;1.53;;
3447;SDS011;1738;49.500;17.736;2023-04-01T13:37:59;2.83;;;1.47;;
3447;SDS011;1738;49.500;17.736;2023-04-01T13:40:26;2.60;;;1.30;;
3447;SDS011;1738;49.500;17.736;2023-04-01T13:42:57;4.40;;;1.63;;
3447;SDS011;1738;49.500;17.736;2023-04-01T13:45:26;2.77;;;1.60;;
3447;SDS011;1738;49.500;17.736;2023-04-01T13:53:11;2.50;;;1.20;;
3447;SDS011;1738;49.500;17.736;2023-04-01T13:55:39;5.57;;;1.50;;
3447;SDS011;1738;49.500;17.736;2023-04-01T13:58:20;2.50;;;1.60;;
3447;SDS011;1738;49.500;17.736;2023-04-01T14:03:54;2.37;;;1.10;;
3447;SDS011;1738;49.500;17.736;2023-04-01T14:06:05;2.83;;;1.30;;
3447;SDS011;1738;49.500;17.736;2023-04-01T14:08:47;4.77;;;1.73;;
3447;SDS011;1738;49.500;17.736;2023-04-01T14:11:24;2.90;;;1.30;;
3447;SDS011;1738;49.500;17.736;2023-04-01T14:14:12;2.90;;;1.20;;
3447;SDS011;1738;49.500;17.736;2023-04-01T14:16:55;3.50;;;1.00;;
3447;SDS011;1738;49.500;17.736;2023-04-01T14:19:27;2.60;;;1.40;;
3447;SDS011;1738;49.500;17.736;2023-04-01T14:21:57;4.50;;;1.53;;
3447;SDS011;1738;49.500;17.736;2023-04-01T14:24:28;2.83;;;1.40;;
3447;SDS011;1738;49.500;17.736;2023-04-01T14:26:56;3.90;;;1.90;;
3447;SDS011;1738;49.500;17.736;2023-04-01T14:29:23;3.63;;;1.60;;
3447;SDS011;1738;49.500;17.736;2023-04-01T14:31:52;5.17;;;1.70;;
3447;SDS011;1738;49.500;17.736;2023-04-01T14:35:25;3.50;;;1.90;;
3447;SDS011;1738;49.500;17.736;2023-04-01T14:37:05;3.90;;;1.73;;
3447;SDS011;1738;49.500;17.736;2023-04-01T14:42:18;3.90;;;1.90;;
3447;SDS011;1738;49.500;17.736;2023-04-01T14:44:54;4.00;;;1.80;;
3447;SDS011;1738;49.500;17.736;2023-04-01T14:47:30;3.00;;;1.77;;
3447;SDS011;1738;49.500;17.736;2023-04-01T14:50:02;3.47;;;1.97;;
3447;SDS011;1738;49.500;17.736;2023-04-01T14:52:25;2.70;;;1.60;;
3447;SDS011;1738;49.500;17.736;2023-04-01T14:54:49;3.00;;;1.37;;
3447;SDS011;1738;49.500;17.736;2023-04-01T14:57:16;3.03;;;1.67;;
3447;SDS011;1738;49.500;17.736;2023-04-01T14:59:48;3.53;;;1.93;;
3447;SDS011;1738;49.500;17.736;2023-04-01T15:05:04;2.60;;;1.43;;
3447;SDS011;1738;49.500;17.736;2023-04-01T15:07:42;2.60;;;1.50;;
3447;SDS011;1738;49.500;17.736;2023-04-01T15:09:55;2.67;;;1.40;;
3447;SDS011;1738;49.500;17.736;2023-04-01T15:12:23;3.33;;;1.53;;
3447;SDS011;1738;49.500;17.736;2023-04-01T15:14:47;3.83;;;1.50;;
3447;SDS011;1738;49.500;17.736;2023-04-01T15:20:04;3.50;;;1.50;;
3447;SDS011;1738;49.500;17.736;2023-04-01T15:23:02;2.60;;;1.40;;
3447;SDS011;1738;49.500;17.736;2023-04-01T15:27:45;4.00;;;1.50;;
3447;SDS011;1738;49.500;17.736;2023-04-01T15:30:32;3.03;;;1.73;;
3447;SDS011;1738;49.500;17.736;2023-04-01T15:33:01;3.17;;;1.73;;
3447;SDS011;1738;49.500;17.736;2023-04-01T15:39:01;4.20;;;2.00;;
3447;SDS011;1738;49.500;17.736;2023-04-01T15:40:40;3.97;;;2.00;;
3447;SDS011;1738;49.500;17.736;2023-04-01T15:43:10;4.00;;;2.27;;
3447;SDS011;1738;49.500;17.736;2023-04-01T15:45:35;4.07;;;2.37;;
3447;SDS011;1738;49.500;17.736;2023-04-01T15:48:00;4.07;;;2.60;;
3447;SDS011;1738;49.500;17.736;2023-04-01T15:50:28;4.20;;;1.67;;
3447;SDS011;1738;49.500;17.736;2023-04-01T15:52:59;3.27;;;1.80;;
3447;SDS011;1738;49.500;17.736;2023-04-01T15:56:28;3.80;;;1.50;;
3447;SDS011;1738;49.500;17.736;2023-04-01T15:58:06;2.80;;;1.57;;
3447;SDS011;1738;49.500;17.736;2023-04-01T16:00:30;2.00;;;0.80;;
3447;SDS011;1738;49.500;17.736;2023-04-01T16:03:10;2.43;;;1.07;;
3447;SDS011;1738;49.500;17.736;2023-04-01T16:05:51;2.67;;;1.17;;
3447;SDS011;1738;49.500;17.736;2023-04-01T16:08:21;2.50;;;1.00;;
3447;SDS011;1738;49.500;17.736;2023-04-01T16:10:49;1.93;;;1.10;;
3447;SDS011;1738;49.500;17.736;2023-04-01T16:15:47;2.10;;;0.90;;
3447;SDS011;1738;49.500;17.736;2023-04-01T16:18:24;2.12;;;1.08;;
3447;SDS011;1738;49.500;17.736;2023-04-01T16:20:53;1.80;;;0.90;;
3447;SDS011;1738;49.500;17.736;2023-04-01T16:23:35;2.07;;;1.23;;
3447;SDS011;1738;49.500;17.736;2023-04-01T16:26:08;3.07;;;2.17;;
3447;SDS011;1738;49.500;17.736;2023-04-01T16:28:39;2.30;;;1.37;;
3447;SDS011;1738;49.500;17.736;2023-04-01T16:31:06;2.00;;;1.00;;
3447;SDS011;1738;49.500;17.736;2023-04-01T16:33:35;2.27;;;1.40;;
3447;SDS011;1738;49.500;17.736;2023-04-01T16:36:07;4.60;;;1.00;;
3447;SDS011;1738;49.500;17.736;2023-04-01T16:38:33;2.73;;;1.00;;
3447;SDS011;1738;49.500;17.736;2023-04-01T16:43:42;2.43;;;1.00;;
3447;SDS011;1738;49.500;17.736;2023-04-01T16:46:15;2.00;;;0.93;;
3447;SDS011;1738;49.500;17.736;2023-04-01T16:51:11;13.33;;;3.87;;
3447;SDS011;1738;49.500;17.736;2023-04-01T16:53:42;4.70;;;3.30;;
3447;SDS011;1738;49.500;17.736;2023-04-01T16:56:09;8.27;;;7.07;;
3447;SDS011;1738;49.500;17.736;2023-04-01T16:58:56;8.33;;;6.63;;
3447;SDS011;1738;49.500;17.736;2023-04-01T17:01:20;10.97;;;8.00;;
3447;SDS011;1738;49.500;17.736;2023-04-01T17:03:43;12.90;;;7.30;;
3447;SDS011;1738;49.500;17.736;2023-04-01T17:06:23;8.17;;;5.57;;
3447;SDS011;1738;49.500;17.736;2023-04-01T17:08:53;12.13;;;8.97;;
3447;SDS011;1738;49.500;17.736;2023-04-01T17:11:20;4.60;;;2.80;;
3447;SDS011;1738;49.500;17.736;2023-04-01T17:13:46;4.57;;;2.93;;
3447;SDS011;1738;49.500;17.736;2023-04-01T17:16:19;13.83;;;7.50;;
3447;SDS011;1738;49.500;17.736;2023-04-01T17:18:47;9.63;;;5.50;;
3447;SDS011;1738;49.500;17.736;2023-04-01T17:21:13;3.83;;;2.30;;
3447;SDS011;1738;49.500;17.736;2023-04-01T17:23:43;3.83;;;2.07;;
3447;SDS011;1738;49.500;17.736;2023-04-01T17:26:41;3.17;;;2.03;;
3447;SDS011;1738;49.500;17.736;2023-04-01T17:28:52;5.10;;;3.63;;
3447;SDS011;1738;49.500;17.736;2023-04-01T17:31:21;6.77;;;4.10;;
3447;SDS011;1738;49.500;17.736;2023-04-01T17:36:21;16.43;;;11.43;;
3447;SDS011;1738;49.500;17.736;2023-04-01T17:38:54;7.87;;;4.83;;
3447;SDS011;1738;49.500;17.736;2023-04-01T17:44:33;9.33;;;4.53;;
3447;SDS011;1738;49.500;17.736;2023-04-01T17:46:55;6.30;;;4.57;;